createdAt,value
2016-10-31T00:00:54.235Z,0
2016-10-31T00:01:54.139Z,0
2016-10-31T00:02:54.078Z,0
2016-10-31T00:03:53.989Z,0
2016-10-31T00:04:54.632Z,0
2016-10-31T00:05:54.028Z,0
2016-10-31T00:06:54.008Z,0
2016-10-31T00:07:54.040Z,0
2016-10-31T00:08:54.556Z,0
2016-10-31T00:09:54.027Z,0
2016-10-31T00:10:53.995Z,0
2016-10-31T00:11:53.993Z,0
2016-10-31T00:12:54.031Z,0
2016-10-31T00:13:54.152Z,0
2016-10-31T00:14:54.047Z,0
2016-10-31T00:15:54.302Z,0
2016-10-31T00:16:54.075Z,0
2016-10-31T00:17:54.043Z,0
2016-10-31T00:18:54.375Z,0
2016-10-31T00:19:54.049Z,0
2016-10-31T00:20:54.062Z,0
2016-10-31T00:21:54.063Z,0
2016-10-31T00:22:54.060Z,0
2016-10-31T00:23:54.111Z,0
2016-10-31T00:24:54.615Z,0
2016-10-31T00:25:54.004Z,0
2016-10-31T00:26:54.007Z,0
2016-10-31T00:27:54.052Z,0
2016-10-31T00:28:54.049Z,0
2016-10-31T00:29:54.638Z,0
2016-10-31T00:30:54.388Z,0
2016-10-31T00:31:54.039Z,0
2016-10-31T00:32:54.031Z,0
2016-10-31T00:33:54.380Z,0
2016-10-31T00:34:54.030Z,0
2016-10-31T00:35:54.184Z,0
2016-10-31T00:36:54.329Z,0
2016-10-31T00:37:54.455Z,0
2016-10-31T00:38:54.723Z,0
2016-10-31T00:39:54.004Z,0
2016-10-31T00:40:54.475Z,0
2016-10-31T00:41:54.016Z,0
2016-10-31T00:42:54.078Z,0
2016-10-31T00:43:54.002Z,0
2016-10-31T00:44:53.996Z,0
2016-10-31T00:45:54.029Z,0
2016-10-31T00:46:54.049Z,0
2016-10-31T00:47:54.567Z,0
2016-10-31T00:48:54.186Z,0
2016-10-31T00:49:54.622Z,0
2016-10-31T00:50:54.194Z,0
2016-10-31T00:51:55.147Z,0
2016-10-31T00:52:54.115Z,0
2016-10-31T00:53:54.042Z,0
2016-10-31T00:54:54.430Z,0
2016-10-31T00:55:54.010Z,0
2016-10-31T00:56:54.737Z,0
2016-10-31T00:57:54.075Z,0
2016-10-31T00:58:55.313Z,0
2016-10-31T00:59:54.090Z,0
2016-10-31T01:00:54.058Z,0
2016-10-31T01:01:54.035Z,0
2016-10-31T01:02:54.093Z,0
2016-10-31T01:03:54.022Z,0
2016-10-31T01:04:54.203Z,0
2016-10-31T01:05:54.342Z,0
2016-10-31T01:06:54.024Z,0
2016-10-31T01:07:54.257Z,0
2016-10-31T01:08:54.021Z,0
2016-10-31T01:09:54.016Z,0
2016-10-31T01:10:54.967Z,0
2016-10-31T01:11:54.056Z,0
2016-10-31T01:12:54.040Z,0
2016-10-31T01:13:54.203Z,0
2016-10-31T01:14:54.052Z,0
2016-10-31T01:15:54.069Z,0
2016-10-31T01:16:54.048Z,0
2016-10-31T01:17:54.087Z,0
2016-10-31T01:18:54.740Z,0
2016-10-31T01:19:54.327Z,0
2016-10-31T01:20:54.075Z,0
2016-10-31T01:21:54.064Z,0
2016-10-31T01:22:54.139Z,0
2016-10-31T01:23:54.064Z,0
2016-10-31T01:24:54.439Z,0
2016-10-31T01:25:54.096Z,0
2016-10-31T01:26:54.147Z,0
2016-10-31T01:27:54.091Z,0
2016-10-31T01:28:54.659Z,0
2016-10-31T01:29:54.090Z,0
2016-10-31T01:30:54.102Z,0
2016-10-31T01:31:54.313Z,0
2016-10-31T01:32:54.087Z,0
2016-10-31T01:33:54.067Z,0
2016-10-31T01:34:54.055Z,0
2016-10-31T01:35:54.085Z,0
2016-10-31T01:36:54.065Z,0
2016-10-31T01:37:54.173Z,0
2016-10-31T01:38:54.114Z,0
2016-10-31T01:39:54.072Z,0
2016-10-31T01:40:54.053Z,0
2016-10-31T01:41:54.085Z,0
2016-10-31T01:42:54.072Z,0
2016-10-31T01:43:54.116Z,0
2016-10-31T01:44:54.068Z,0
2016-10-31T01:45:54.097Z,0
2016-10-31T01:46:54.574Z,0
2016-10-31T01:47:54.063Z,0
2016-10-31T01:48:54.062Z,0
2016-10-31T01:49:54.340Z,0
2016-10-31T01:50:54.028Z,0
2016-10-31T01:51:54.056Z,0
2016-10-31T01:52:55.028Z,0
2016-10-31T01:53:54.122Z,0
2016-10-31T01:54:54.037Z,0
2016-10-31T01:55:54.059Z,0
2016-10-31T01:56:54.068Z,0
2016-10-31T01:57:54.090Z,0
2016-10-31T01:58:55.485Z,0
2016-10-31T01:59:54.163Z,0
2016-10-31T02:00:54.112Z,0
2016-10-31T02:01:54.615Z,0
2016-10-31T02:02:54.141Z,0
2016-10-31T02:03:54.099Z,0
2016-10-31T02:04:54.327Z,0
2016-10-31T02:05:54.089Z,0
2016-10-31T02:06:54.182Z,0
2016-10-31T02:07:54.595Z,0
2016-10-31T02:08:54.844Z,0
2016-10-31T02:09:54.701Z,0
2016-10-31T02:10:54.367Z,0
2016-10-31T02:11:54.620Z,0
2016-10-31T02:12:54.594Z,0
2016-10-31T02:13:54.646Z,0
2016-10-31T02:14:54.110Z,0
2016-10-31T02:15:54.204Z,0
2016-10-31T02:16:54.055Z,0
2016-10-31T02:17:54.088Z,0
2016-10-31T02:18:54.068Z,0
2016-10-31T02:19:54.047Z,0
2016-10-31T02:20:54.715Z,0
2016-10-31T02:21:54.214Z,0
2016-10-31T02:22:54.079Z,0
2016-10-31T02:23:54.141Z,0
2016-10-31T02:24:54.064Z,0
2016-10-31T02:25:54.089Z,0
2016-10-31T02:26:54.093Z,0
2016-10-31T02:27:54.103Z,0
2016-10-31T02:28:54.139Z,0
2016-10-31T02:29:54.093Z,0
2016-10-31T02:30:54.089Z,0
2016-10-31T02:31:54.085Z,0
2016-10-31T02:32:54.242Z,0
2016-10-31T02:33:54.131Z,0
2016-10-31T02:34:54.081Z,0
2016-10-31T02:35:54.113Z,0
2016-10-31T02:36:54.094Z,0
2016-10-31T02:37:54.186Z,0
2016-10-31T02:38:54.100Z,0
2016-10-31T02:39:54.171Z,0
2016-10-31T02:40:54.117Z,0
2016-10-31T02:41:54.125Z,0
2016-10-31T02:42:54.160Z,0
2016-10-31T02:43:54.249Z,0
2016-10-31T02:44:54.159Z,0
2016-10-31T02:45:54.115Z,0
2016-10-31T02:46:54.102Z,0
2016-10-31T02:47:54.894Z,0
2016-10-31T02:48:54.108Z,0
2016-10-31T02:49:54.156Z,0
2016-10-31T02:50:54.303Z,0
2016-10-31T02:51:54.144Z,0
2016-10-31T02:52:54.170Z,0
2016-10-31T02:53:54.138Z,0
2016-10-31T02:54:54.153Z,0
2016-10-31T02:55:54.267Z,0
2016-10-31T02:56:54.132Z,0
2016-10-31T02:57:54.176Z,0
2016-10-31T02:58:54.141Z,0
2016-10-31T02:59:54.154Z,0
2016-10-31T03:00:54.115Z,0
2016-10-31T03:01:54.184Z,0
2016-10-31T03:02:54.192Z,0
2016-10-31T03:03:54.159Z,0
2016-10-31T03:04:54.165Z,0
2016-10-31T03:05:54.177Z,0
2016-10-31T03:06:54.196Z,0
2016-10-31T03:07:54.217Z,0
2016-10-31T03:08:54.229Z,0
2016-10-31T03:09:54.137Z,0
2016-10-31T03:10:54.299Z,0
2016-10-31T03:11:54.199Z,0
2016-10-31T03:12:54.229Z,0
2016-10-31T03:13:54.752Z,0
2016-10-31T03:14:54.228Z,0
2016-10-31T03:15:54.165Z,0
2016-10-31T03:16:54.153Z,0
2016-10-31T03:17:54.240Z,0
2016-10-31T03:18:54.126Z,0
2016-10-31T03:19:54.132Z,0
2016-10-31T03:20:54.173Z,0
2016-10-31T03:21:54.246Z,0
2016-10-31T03:22:54.151Z,0
2016-10-31T03:23:54.143Z,0
2016-10-31T03:24:54.226Z,0
2016-10-31T03:25:54.162Z,0
2016-10-31T03:26:54.134Z,0
2016-10-31T03:27:54.693Z,0
2016-10-31T03:28:54.186Z,0
2016-10-31T03:29:54.124Z,0
2016-10-31T03:30:54.143Z,0
2016-10-31T03:31:54.182Z,0
2016-10-31T03:32:54.194Z,0
2016-10-31T03:33:54.202Z,0
2016-10-31T03:34:54.282Z,0
2016-10-31T03:35:54.195Z,0
2016-10-31T03:36:54.171Z,0
2016-10-31T03:37:54.241Z,0
2016-10-31T03:38:54.401Z,0
2016-10-31T03:39:54.177Z,0
2016-10-31T03:40:54.183Z,0
2016-10-31T03:41:54.192Z,0
2016-10-31T03:42:54.451Z,0
2016-10-31T03:43:54.217Z,0
2016-10-31T03:44:54.201Z,0
2016-10-31T03:45:54.207Z,0
2016-10-31T03:46:54.194Z,0
2016-10-31T03:47:54.270Z,0
2016-10-31T03:48:54.241Z,0
2016-10-31T03:49:54.231Z,0
2016-10-31T03:50:54.216Z,0
2016-10-31T03:51:54.254Z,0
2016-10-31T03:52:54.306Z,0
2016-10-31T03:53:54.296Z,0
2016-10-31T03:54:54.223Z,0
2016-10-31T03:55:54.181Z,0
2016-10-31T03:56:54.198Z,0
2016-10-31T03:57:54.194Z,0
2016-10-31T03:58:54.190Z,0
2016-10-31T03:59:54.367Z,0
2016-10-31T04:00:54.555Z,0
2016-10-31T04:01:54.174Z,0
2016-10-31T04:02:54.246Z,0
2016-10-31T04:03:54.241Z,0
2016-10-31T04:04:54.216Z,0
2016-10-31T04:05:54.236Z,0
2016-10-31T04:06:54.444Z,0
2016-10-31T04:07:54.205Z,0
2016-10-31T04:08:54.563Z,0
2016-10-31T04:09:54.294Z,0
2016-10-31T04:10:54.271Z,0
2016-10-31T04:11:54.327Z,0
2016-10-31T04:12:54.314Z,0
2016-10-31T04:13:54.260Z,0
2016-10-31T04:14:54.240Z,0
2016-10-31T04:15:54.195Z,0
2016-10-31T04:16:54.227Z,0
2016-10-31T04:17:54.232Z,0
2016-10-31T04:18:54.225Z,0
2016-10-31T04:19:54.253Z,0
2016-10-31T04:20:54.225Z,0
2016-10-31T04:21:54.188Z,0
2016-10-31T04:22:54.177Z,0
2016-10-31T04:23:54.187Z,0
2016-10-31T04:24:54.184Z,0
2016-10-31T04:25:54.189Z,0
2016-10-31T04:26:54.176Z,0
2016-10-31T04:27:54.189Z,0
2016-10-31T04:28:54.183Z,0
2016-10-31T04:29:54.189Z,0
2016-10-31T04:30:54.293Z,0
2016-10-31T04:31:54.244Z,0
2016-10-31T04:32:54.232Z,0
2016-10-31T04:33:54.224Z,0
2016-10-31T04:34:54.307Z,0
2016-10-31T04:35:54.240Z,0
2016-10-31T04:36:54.273Z,0
2016-10-31T04:37:54.196Z,0
2016-10-31T04:38:54.309Z,0
2016-10-31T04:39:54.215Z,0
2016-10-31T04:40:54.221Z,0
2016-10-31T04:41:54.286Z,0
2016-10-31T04:42:54.299Z,0
2016-10-31T04:43:54.239Z,0
2016-10-31T04:44:54.199Z,0
2016-10-31T04:45:54.187Z,0
2016-10-31T04:46:54.229Z,0
2016-10-31T04:47:54.217Z,0
2016-10-31T04:48:54.238Z,0
2016-10-31T04:49:54.264Z,0
2016-10-31T04:50:54.226Z,0
2016-10-31T04:51:54.204Z,0
2016-10-31T04:52:54.212Z,0
2016-10-31T04:53:54.198Z,0
2016-10-31T04:54:54.194Z,0
2016-10-31T04:55:54.213Z,0
2016-10-31T04:56:54.215Z,0
2016-10-31T04:57:54.226Z,0
2016-10-31T04:58:54.246Z,0
2016-10-31T04:59:54.235Z,0
2016-10-31T05:00:54.215Z,0
2016-10-31T05:01:54.258Z,0
2016-10-31T05:02:54.251Z,0
2016-10-31T05:03:54.290Z,0
2016-10-31T05:04:54.243Z,0
2016-10-31T05:05:54.251Z,0
2016-10-31T05:06:54.247Z,0
2016-10-31T05:07:54.233Z,0
2016-10-31T05:08:54.300Z,0
2016-10-31T05:09:54.236Z,0
2016-10-31T05:10:54.270Z,0
2016-10-31T05:11:54.296Z,0
2016-10-31T05:12:54.235Z,0
2016-10-31T05:13:54.255Z,0
2016-10-31T05:14:54.242Z,0
2016-10-31T05:15:54.289Z,0
2016-10-31T05:16:54.237Z,0
2016-10-31T05:17:54.249Z,0
2016-10-31T05:18:54.274Z,0
2016-10-31T05:19:54.338Z,0
2016-10-31T05:20:54.267Z,0
2016-10-31T05:21:54.242Z,0
2016-10-31T05:22:54.315Z,0
2016-10-31T05:23:54.674Z,0
2016-10-31T05:24:54.348Z,0
2016-10-31T05:25:54.322Z,0
2016-10-31T05:26:54.332Z,0
2016-10-31T05:27:54.284Z,0
2016-10-31T05:28:54.257Z,0
2016-10-31T05:29:54.315Z,0
2016-10-31T05:30:54.280Z,0
2016-10-31T05:31:54.822Z,0
2016-10-31T05:32:54.333Z,0
2016-10-31T05:33:54.289Z,0
2016-10-31T05:34:54.257Z,0
2016-10-31T05:35:54.254Z,0
2016-10-31T05:36:54.290Z,0
2016-10-31T05:37:54.262Z,0
2016-10-31T05:38:54.277Z,0
2016-10-31T05:39:54.232Z,0
2016-10-31T05:40:54.284Z,0
2016-10-31T05:41:54.249Z,0
2016-10-31T05:42:54.247Z,0
2016-10-31T05:43:54.272Z,0
2016-10-31T05:44:54.286Z,0
2016-10-31T05:45:54.254Z,0
2016-10-31T05:46:54.373Z,0
2016-10-31T05:47:54.433Z,0
2016-10-31T05:48:54.335Z,0
2016-10-31T05:49:54.331Z,0
2016-10-31T05:50:54.357Z,0
2016-10-31T05:51:54.409Z,0
2016-10-31T05:52:54.259Z,0
2016-10-31T05:53:54.287Z,0
2016-10-31T05:54:54.310Z,0
2016-10-31T05:55:54.257Z,0
2016-10-31T05:56:54.289Z,0
2016-10-31T05:57:54.280Z,0
2016-10-31T05:58:54.319Z,0
2016-10-31T05:59:54.318Z,0
2016-10-31T06:00:54.342Z,0
2016-10-31T06:01:54.316Z,0
2016-10-31T06:02:54.280Z,0
2016-10-31T06:03:54.372Z,0
2016-10-31T06:04:54.332Z,0
2016-10-31T06:05:54.353Z,0
2016-10-31T06:06:54.306Z,0
2016-10-31T06:07:54.315Z,0
2016-10-31T06:08:54.325Z,0
2016-10-31T06:09:54.310Z,0
2016-10-31T06:10:54.323Z,0
2016-10-31T06:11:54.289Z,0
2016-10-31T06:12:54.372Z,0
2016-10-31T06:13:54.329Z,0
2016-10-31T06:14:54.345Z,0
2016-10-31T06:15:54.293Z,0
2016-10-31T06:16:54.288Z,0
2016-10-31T06:17:54.331Z,0
2016-10-31T06:18:54.333Z,0
2016-10-31T06:19:54.376Z,0
2016-10-31T06:20:54.368Z,0
2016-10-31T06:21:54.358Z,0
2016-10-31T06:22:54.322Z,5
2016-10-31T06:23:54.340Z,5
2016-10-31T06:24:54.294Z,5
2016-10-31T06:25:54.297Z,5
2016-10-31T06:26:54.374Z,5
2016-10-31T06:27:54.348Z,5
2016-10-31T06:28:54.357Z,5
2016-10-31T06:29:54.318Z,5
2016-10-31T06:30:54.315Z,10
2016-10-31T06:31:54.340Z,10
2016-10-31T06:32:54.325Z,10
2016-10-31T06:33:55.086Z,10
2016-10-31T06:34:54.331Z,10
2016-10-31T06:35:54.356Z,10
2016-10-31T06:36:54.538Z,10
2016-10-31T06:37:54.334Z,15
2016-10-31T06:38:54.356Z,15
2016-10-31T06:39:54.321Z,15
2016-10-31T06:40:54.302Z,15
2016-10-31T06:41:55.393Z,15
2016-10-31T06:42:54.397Z,15
2016-10-31T06:43:54.379Z,15
2016-10-31T06:44:55.162Z,15
2016-10-31T06:45:54.806Z,15
2016-10-31T06:46:54.381Z,15
2016-10-31T06:47:54.339Z,20
2016-10-31T06:48:54.355Z,20
2016-10-31T06:49:57.040Z,20
2016-10-31T06:50:55.075Z,20
2016-10-31T06:51:54.745Z,20
2016-10-31T06:52:55.207Z,25
2016-10-31T06:53:55.146Z,25
2016-10-31T06:54:55.804Z,30
2016-10-31T06:55:54.523Z,30
2016-10-31T06:56:54.351Z,35
2016-10-31T06:57:54.407Z,40
2016-10-31T06:58:54.646Z,40
2016-10-31T06:59:55.440Z,45
2016-10-31T07:00:55.622Z,50
2016-10-31T07:01:55.558Z,50
2016-10-31T07:02:54.361Z,50
2016-10-31T07:03:55.076Z,50
2016-10-31T07:04:54.506Z,50
2016-10-31T07:05:57.822Z,45
2016-10-31T07:06:57.106Z,45
2016-10-31T07:07:55.472Z,45
2016-10-31T07:08:54.990Z,50
2016-10-31T07:09:55.567Z,50
2016-10-31T07:10:54.441Z,55
2016-10-31T07:11:54.367Z,55
2016-10-31T07:12:56.003Z,60
2016-10-31T07:13:55.525Z,65
2016-10-31T07:14:55.050Z,70
2016-10-31T07:15:54.336Z,70
2016-10-31T07:16:54.405Z,65
2016-10-31T07:17:54.372Z,60
2016-10-31T07:18:54.365Z,55
2016-10-31T07:19:54.428Z,50
2016-10-31T07:20:54.359Z,50
2016-10-31T07:21:54.476Z,50
2016-10-31T07:22:57.236Z,50
2016-10-31T07:23:55.090Z,45
2016-10-31T07:24:54.426Z,45
2016-10-31T07:25:54.396Z,45
2016-10-31T07:26:54.372Z,45
2016-10-31T07:27:54.360Z,50
2016-10-31T07:28:54.416Z,50
2016-10-31T07:29:54.402Z,50
2016-10-31T07:30:54.378Z,55
2016-10-31T07:31:54.431Z,60
2016-10-31T07:32:55.257Z,60
2016-10-31T07:33:54.405Z,60
2016-10-31T07:34:55.093Z,60
2016-10-31T07:35:54.397Z,65
2016-10-31T07:36:54.384Z,70
2016-10-31T07:37:54.412Z,75
2016-10-31T07:38:54.453Z,80
2016-10-31T07:39:54.413Z,85
2016-10-31T07:40:54.380Z,90
2016-10-31T07:41:54.377Z,90
2016-10-31T07:42:54.355Z,90
2016-10-31T07:43:54.425Z,90
2016-10-31T07:44:54.397Z,90
2016-10-31T07:45:54.477Z,95
2016-10-31T07:46:54.384Z,100
2016-10-31T07:47:54.546Z,105
2016-10-31T07:48:54.425Z,110
2016-10-31T07:49:54.354Z,110
2016-10-31T07:50:54.383Z,110
2016-10-31T07:51:54.414Z,105
2016-10-31T07:52:54.443Z,100
2016-10-31T07:53:54.405Z,95
2016-10-31T07:54:54.388Z,90
2016-10-31T07:55:54.560Z,95
2016-10-31T07:56:54.524Z,90
2016-10-31T07:57:54.459Z,90
2016-10-31T07:58:54.409Z,90
2016-10-31T07:59:54.347Z,90
2016-10-31T08:00:54.624Z,90
2016-10-31T08:01:54.388Z,90
2016-10-31T08:02:54.426Z,95
2016-10-31T08:03:54.476Z,95
2016-10-31T08:04:54.566Z,95
2016-10-31T08:05:54.501Z,95
2016-10-31T08:06:54.411Z,95
2016-10-31T08:07:54.413Z,95
2016-10-31T08:08:54.410Z,100
2016-10-31T08:09:55.299Z,95
2016-10-31T08:10:54.455Z,100
2016-10-31T08:11:54.451Z,100
2016-10-31T08:12:54.442Z,100
2016-10-31T08:13:54.876Z,100
2016-10-31T08:14:54.405Z,100
2016-10-31T08:15:54.485Z,100
2016-10-31T08:16:54.444Z,105
2016-10-31T08:17:54.488Z,110
2016-10-31T08:18:54.459Z,110
2016-10-31T08:19:54.399Z,115
2016-10-31T08:20:54.402Z,120
2016-10-31T08:21:54.457Z,125
2016-10-31T08:22:54.550Z,125
2016-10-31T08:23:54.529Z,130
2016-10-31T08:24:54.511Z,130
2016-10-31T08:25:54.502Z,135
2016-10-31T08:26:54.474Z,140
2016-10-31T08:27:54.476Z,140
2016-10-31T08:28:54.524Z,145
2016-10-31T08:29:54.469Z,150
2016-10-31T08:30:54.570Z,155
2016-10-31T08:31:54.642Z,155
2016-10-31T08:32:54.495Z,150
2016-10-31T08:33:54.509Z,150
2016-10-31T08:34:54.438Z,150
2016-10-31T08:35:54.424Z,145
2016-10-31T08:36:54.441Z,140
2016-10-31T08:37:54.477Z,140
2016-10-31T08:38:54.469Z,140
2016-10-31T08:39:54.508Z,130
2016-10-31T08:40:54.589Z,125
2016-10-31T08:41:55.205Z,120
2016-10-31T08:42:54.444Z,120
2016-10-31T08:43:54.546Z,115
2016-10-31T08:44:54.548Z,110
2016-10-31T08:45:54.448Z,110
2016-10-31T08:46:54.543Z,110
2016-10-31T08:47:54.444Z,110
2016-10-31T08:48:55.263Z,110
2016-10-31T08:49:54.444Z,115
2016-10-31T08:50:54.422Z,120
2016-10-31T08:51:54.450Z,125
2016-10-31T08:52:54.489Z,135
2016-10-31T08:53:54.768Z,140
2016-10-31T08:54:54.472Z,140
2016-10-31T08:55:54.507Z,145
2016-10-31T08:56:54.462Z,145
2016-10-31T08:57:54.447Z,145
2016-10-31T08:58:54.509Z,145
2016-10-31T08:59:54.423Z,145
2016-10-31T09:00:54.485Z,150
2016-10-31T09:01:54.435Z,150
2016-10-31T09:02:54.512Z,155
2016-10-31T09:03:54.508Z,155
2016-10-31T09:04:54.437Z,160
2016-10-31T09:05:54.440Z,160
2016-10-31T09:06:54.531Z,165
2016-10-31T09:07:54.469Z,165
2016-10-31T09:08:54.536Z,165
2016-10-31T09:09:54.467Z,170
2016-10-31T09:10:54.476Z,175
2016-10-31T09:11:54.528Z,180
2016-10-31T09:12:54.488Z,185
2016-10-31T09:13:54.556Z,180
2016-10-31T09:14:54.474Z,175
2016-10-31T09:15:54.610Z,170
2016-10-31T09:16:54.502Z,165
2016-10-31T09:17:54.616Z,160
2016-10-31T09:18:54.552Z,155
2016-10-31T09:19:54.469Z,150
2016-10-31T09:20:54.477Z,140
2016-10-31T09:21:54.514Z,130
2016-10-31T09:22:54.520Z,130
2016-10-31T09:23:54.605Z,125
2016-10-31T09:24:54.600Z,125
2016-10-31T09:25:54.586Z,120
2016-10-31T09:26:54.582Z,115
2016-10-31T09:27:54.553Z,115
2016-10-31T09:28:54.624Z,110
2016-10-31T09:29:54.585Z,110
2016-10-31T09:30:54.592Z,110
2016-10-31T09:31:54.597Z,110
2016-10-31T09:32:54.563Z,110
2016-10-31T09:33:54.508Z,110
2016-10-31T09:34:54.543Z,110
2016-10-31T09:35:54.510Z,110
2016-10-31T09:36:54.543Z,110
2016-10-31T09:37:54.460Z,110
2016-10-31T09:38:54.467Z,110
2016-10-31T09:39:54.459Z,110
2016-10-31T09:40:54.673Z,110
2016-10-31T09:41:54.627Z,105
2016-10-31T09:42:54.522Z,105
2016-10-31T09:43:54.535Z,105
2016-10-31T09:44:54.478Z,105
2016-10-31T09:45:54.516Z,115
2016-10-31T09:46:54.542Z,105
2016-10-31T09:47:54.519Z,105
2016-10-31T09:48:54.540Z,110
2016-10-31T09:49:54.526Z,110
2016-10-31T09:50:54.498Z,110
2016-10-31T09:51:54.471Z,110
2016-10-31T09:52:54.498Z,110
2016-10-31T09:53:54.570Z,110
2016-10-31T09:54:54.469Z,110
2016-10-31T09:55:54.493Z,110
2016-10-31T09:56:54.489Z,105
2016-10-31T09:57:54.486Z,105
2016-10-31T09:58:55.178Z,105
2016-10-31T09:59:54.482Z,105
2016-10-31T10:00:54.582Z,105
2016-10-31T10:01:54.498Z,105
2016-10-31T10:02:54.521Z,105
2016-10-31T10:03:54.541Z,105
2016-10-31T10:04:54.571Z,105
2016-10-31T10:05:54.522Z,105
2016-10-31T10:06:54.565Z,110
2016-10-31T10:07:54.541Z,105
2016-10-31T10:08:54.546Z,105
2016-10-31T10:09:54.560Z,110
2016-10-31T10:10:54.590Z,110
2016-10-31T10:11:54.629Z,105
2016-10-31T10:12:55.549Z,110
2016-10-31T10:13:54.589Z,110
2016-10-31T10:14:54.517Z,110
2016-10-31T10:15:54.560Z,110
2016-10-31T10:16:54.883Z,105
2016-10-31T10:17:54.555Z,105
2016-10-31T10:18:55.226Z,110
2016-10-31T10:19:54.578Z,110
2016-10-31T10:20:54.585Z,110
2016-10-31T10:21:54.616Z,110
2016-10-31T10:22:54.571Z,110
2016-10-31T10:23:54.681Z,110
2016-10-31T10:24:54.531Z,110
2016-10-31T10:25:54.538Z,110
2016-10-31T10:26:54.475Z,110
2016-10-31T10:27:54.478Z,110
2016-10-31T10:28:54.524Z,110
2016-10-31T10:29:54.505Z,110
2016-10-31T10:30:54.544Z,110
2016-10-31T10:31:54.567Z,110
2016-10-31T10:32:54.512Z,110
2016-10-31T10:33:54.535Z,110
2016-10-31T10:34:54.516Z,110
2016-10-31T10:35:54.520Z,110
2016-10-31T10:36:54.528Z,110
2016-10-31T10:37:54.564Z,110
2016-10-31T10:38:54.660Z,110
2016-10-31T10:39:54.592Z,110
2016-10-31T10:40:54.616Z,110
2016-10-31T10:41:54.523Z,110
2016-10-31T10:42:54.570Z,110
2016-10-31T10:43:54.621Z,110
2016-10-31T10:44:54.551Z,110
2016-10-31T10:45:54.561Z,110
2016-10-31T10:46:54.539Z,110
2016-10-31T10:47:54.542Z,110
2016-10-31T10:48:54.575Z,110
2016-10-31T10:49:54.550Z,110
2016-10-31T10:50:54.535Z,110
2016-10-31T10:51:54.542Z,110
2016-10-31T10:52:54.591Z,110
2016-10-31T10:53:54.600Z,110
2016-10-31T10:54:54.524Z,110
2016-10-31T10:55:54.651Z,110
2016-10-31T10:56:54.578Z,110
2016-10-31T10:57:54.626Z,110
2016-10-31T10:58:54.619Z,110
2016-10-31T10:59:54.947Z,115
2016-10-31T11:00:54.645Z,115
2016-10-31T11:01:54.587Z,115
2016-10-31T11:02:54.607Z,110
2016-10-31T11:03:54.727Z,110
2016-10-31T11:04:54.606Z,115
2016-10-31T11:05:54.614Z,110
2016-10-31T11:06:54.671Z,115
2016-10-31T11:07:54.891Z,115
2016-10-31T11:08:54.618Z,115
2016-10-31T11:09:54.554Z,115
2016-10-31T11:10:54.594Z,115
2016-10-31T11:11:54.583Z,115
2016-10-31T11:12:54.573Z,115
2016-10-31T11:13:54.565Z,115
2016-10-31T11:14:54.536Z,120
2016-10-31T11:15:54.530Z,115
2016-10-31T11:16:54.587Z,115
2016-10-31T11:17:54.578Z,120
2016-10-31T11:18:54.586Z,115
2016-10-31T11:19:54.624Z,115
2016-10-31T11:20:54.613Z,115
2016-10-31T11:21:54.585Z,110
2016-10-31T11:22:54.560Z,110
2016-10-31T11:23:54.723Z,110
2016-10-31T11:24:54.618Z,110
2016-10-31T11:25:54.560Z,110
2016-10-31T11:26:54.610Z,110
2016-10-31T11:27:54.679Z,110
2016-10-31T11:28:54.622Z,110
2016-10-31T11:29:54.630Z,110
2016-10-31T11:30:54.573Z,110
2016-10-31T11:31:54.574Z,110
2016-10-31T11:32:54.620Z,110
2016-10-31T11:33:55.021Z,110
2016-10-31T11:34:54.614Z,110
2016-10-31T11:35:54.598Z,110
2016-10-31T11:36:54.611Z,110
2016-10-31T11:37:54.653Z,110
2016-10-31T11:38:54.752Z,110
2016-10-31T11:39:54.796Z,110
2016-10-31T11:40:54.564Z,110
2016-10-31T11:41:54.640Z,110
2016-10-31T11:42:54.614Z,110
2016-10-31T11:43:54.616Z,110
2016-10-31T11:44:54.621Z,110
2016-10-31T11:45:54.717Z,110
2016-10-31T11:46:55.353Z,105
2016-10-31T11:47:54.634Z,105
2016-10-31T11:48:54.705Z,105
2016-10-31T11:49:54.659Z,105
2016-10-31T11:50:54.595Z,105
2016-10-31T11:51:54.603Z,105
2016-10-31T11:52:54.642Z,105
2016-10-31T11:53:54.675Z,105
2016-10-31T11:54:54.657Z,105
2016-10-31T11:55:54.714Z,105
2016-10-31T11:56:54.690Z,105
2016-10-31T11:57:54.713Z,105
2016-10-31T11:58:54.675Z,105
2016-10-31T11:59:54.624Z,105
2016-10-31T12:00:54.682Z,105
2016-10-31T12:01:54.608Z,105
2016-10-31T12:02:54.672Z,105
2016-10-31T12:03:54.646Z,105
2016-10-31T12:04:54.728Z,105
2016-10-31T12:05:54.696Z,105
2016-10-31T12:06:54.631Z,105
2016-10-31T12:07:54.766Z,105
2016-10-31T12:08:54.640Z,105
2016-10-31T12:09:54.682Z,105
2016-10-31T12:10:54.750Z,105
2016-10-31T12:11:54.647Z,105
2016-10-31T12:12:54.720Z,110
2016-10-31T12:13:54.701Z,110
2016-10-31T12:14:54.709Z,110
2016-10-31T12:15:54.801Z,110
2016-10-31T12:16:54.718Z,110
2016-10-31T12:17:54.725Z,110
2016-10-31T12:18:54.749Z,110
2016-10-31T12:19:54.676Z,110
2016-10-31T12:20:54.781Z,105
2016-10-31T12:21:54.805Z,110
2016-10-31T12:22:54.656Z,110
2016-10-31T12:23:54.738Z,110
2016-10-31T12:24:54.717Z,110
2016-10-31T12:25:54.753Z,110
2016-10-31T12:26:54.795Z,110
2016-10-31T12:27:54.645Z,110
2016-10-31T12:28:54.770Z,110
2016-10-31T12:29:54.657Z,105
2016-10-31T12:30:54.664Z,110
2016-10-31T12:31:54.645Z,110
2016-10-31T12:32:54.683Z,110
2016-10-31T12:33:54.664Z,110
2016-10-31T12:34:54.685Z,110
2016-10-31T12:35:54.660Z,110
2016-10-31T12:36:54.636Z,110
2016-10-31T12:37:54.687Z,105
2016-10-31T12:38:54.703Z,105
2016-10-31T12:39:54.673Z,105
2016-10-31T12:40:54.665Z,105
2016-10-31T12:41:54.709Z,110
2016-10-31T12:42:54.663Z,105
2016-10-31T12:43:54.686Z,105
2016-10-31T12:44:54.676Z,105
2016-10-31T12:45:54.626Z,105
2016-10-31T12:46:54.721Z,105
2016-10-31T12:47:54.656Z,105
2016-10-31T12:48:54.671Z,105
2016-10-31T12:49:54.779Z,105
2016-10-31T12:50:54.655Z,105
2016-10-31T12:51:54.682Z,105
2016-10-31T12:52:54.633Z,105
2016-10-31T12:53:54.650Z,105
2016-10-31T12:54:54.619Z,105
2016-10-31T12:55:54.690Z,105
2016-10-31T12:56:54.633Z,105
2016-10-31T12:57:54.649Z,105
2016-10-31T12:58:54.641Z,105
2016-10-31T12:59:54.644Z,105
2016-10-31T13:00:54.679Z,105
2016-10-31T13:01:54.635Z,105
2016-10-31T13:02:54.713Z,105
2016-10-31T13:03:54.674Z,105
2016-10-31T13:04:54.678Z,105
2016-10-31T13:05:54.702Z,105
2016-10-31T13:06:54.687Z,105
2016-10-31T13:07:54.684Z,105
2016-10-31T13:08:54.778Z,105
2016-10-31T13:09:54.724Z,105
2016-10-31T13:10:54.666Z,105
2016-10-31T13:11:54.679Z,105
2016-10-31T13:12:54.690Z,105
2016-10-31T13:13:54.690Z,110
2016-10-31T13:14:54.722Z,105
2016-10-31T13:15:54.695Z,105
2016-10-31T13:16:54.702Z,105
2016-10-31T13:17:54.682Z,105
2016-10-31T13:18:54.676Z,105
2016-10-31T13:19:55.076Z,105
2016-10-31T13:20:54.714Z,100
2016-10-31T13:21:54.678Z,100
2016-10-31T13:22:54.708Z,100
2016-10-31T13:23:55.336Z,100
2016-10-31T13:24:54.748Z,100
2016-10-31T13:25:54.722Z,100
2016-10-31T13:26:54.747Z,100
2016-10-31T13:27:54.719Z,100
2016-10-31T13:28:54.725Z,100
2016-10-31T13:29:54.673Z,100
2016-10-31T13:30:54.738Z,100
2016-10-31T13:31:54.738Z,100
2016-10-31T13:32:54.767Z,100
2016-10-31T13:33:55.410Z,100
2016-10-31T13:34:54.715Z,100
2016-10-31T13:35:54.742Z,100
2016-10-31T13:36:54.671Z,100
2016-10-31T13:37:54.690Z,100
2016-10-31T13:38:54.674Z,100
2016-10-31T13:39:54.725Z,100
2016-10-31T13:40:54.684Z,100
2016-10-31T13:41:54.771Z,100
2016-10-31T13:42:54.739Z,100
2016-10-31T13:43:54.715Z,100
2016-10-31T13:44:54.705Z,100
2016-10-31T13:45:54.724Z,100
2016-10-31T13:46:54.758Z,100
2016-10-31T13:47:54.746Z,100
2016-10-31T13:48:54.769Z,95
2016-10-31T13:49:54.726Z,95
2016-10-31T13:50:54.728Z,95
2016-10-31T13:51:54.743Z,95
2016-10-31T13:52:54.751Z,95
2016-10-31T13:53:54.731Z,95
2016-10-31T13:54:54.706Z,95
2016-10-31T13:55:54.747Z,95
2016-10-31T13:56:54.762Z,95
2016-10-31T13:57:55.343Z,95
2016-10-31T13:58:54.765Z,95
2016-10-31T13:59:54.758Z,90
2016-10-31T14:00:54.809Z,90
2016-10-31T14:01:54.719Z,95
2016-10-31T14:02:54.777Z,95
2016-10-31T14:03:54.817Z,95
2016-10-31T14:04:55.340Z,95
2016-10-31T14:05:54.748Z,90
2016-10-31T14:06:54.801Z,90
2016-10-31T14:07:54.764Z,90
2016-10-31T14:08:54.749Z,90
2016-10-31T14:09:54.744Z,90
2016-10-31T14:10:54.734Z,90
2016-10-31T14:11:54.817Z,90
2016-10-31T14:12:54.845Z,90
2016-10-31T14:13:54.834Z,90
2016-10-31T14:14:54.877Z,90
2016-10-31T14:15:54.759Z,90
2016-10-31T14:16:54.783Z,90
2016-10-31T14:17:54.828Z,90